Time;durP1;ratioP1;P1;durP2;ratioP2;P2;SDS_P1;SDS_P2;PMS_P1;PMS_P2;Temp;Humidity;BMP_temperature;BMP_pressure;BME280_temperature;BME280_humidity;BME280_pressure;Samples;Min_cycle;Max_cycle;Signal;HPM_P1;HPM_P2
2022/11/21 00:00:44;;;;;;;4.40;3.15;;;12.30;62.90;;;;;;5027759;28;20026;-73
2022/11/21 00:03:11;;;;;;;4.50;3.40;;;12.20;62.90;;;;;;5027688;28;20429;-73
2022/11/21 00:05:41;;;;;;;4.13;3.58;;;12.30;63.00;;;;;;5027631;28;20076;-73
2022/11/21 00:08:12;;;;;;;4.05;3.38;;;12.30;63.00;;;;;;5027525;28;20507;-72
2022/11/21 00:10:38;;;;;;;3.15;2.55;;;12.20;63.00;;;;;;5027597;28;20045;-74
2022/11/21 00:13:05;;;;;;;4.45;3.13;;;12.20;63.00;;;;;;5027449;28;20025;-73
2022/11/21 00:15:31;;;;;;;5.85;3.80;;;12.20;63.10;;;;;;5027373;28;20081;-72
2022/11/21 00:17:58;;;;;;;4.53;3.80;;;12.10;63.20;;;;;;5027379;28;20187;-72
2022/11/21 00:20:23;;;;;;;4.50;3.90;;;12.10;63.40;;;;;;5027320;28;20317;-72
2022/11/21 00:22:49;;;;;;;4.65;3.72;;;12.10;63.30;;;;;;5027344;28;20053;-74
2022/11/21 00:25:15;;;;;;;4.13;3.33;;;12.10;63.30;;;;;;5027218;28;20060;-73
2022/11/21 00:27:41;;;;;;;3.42;3.13;;;12.10;63.30;;;;;;5027081;28;20416;-74
2022/11/21 00:30:09;;;;;;;5.10;3.90;;;12.10;63.10;;;;;;5027175;28;20013;-73
2022/11/21 00:32:35;;;;;;;3.90;3.22;;;12.20;63.80;;;;;;5027171;28;20064;-73
2022/11/21 00:35:01;;;;;;;4.72;3.50;;;12.20;63.00;;;;;;5027118;28;20018;-73
2022/11/21 00:37:27;;;;;;;4.30;3.53;;;12.20;63.00;;;;;;5027043;28;20022;-74
2022/11/21 00:39:52;;;;;;;3.90;3.13;;;12.20;63.00;;;;;;5042429;28;20017;-74
2022/11/21 00:42:18;;;;;;;4.03;3.25;;;12.20;62.80;;;;;;5026805;28;20271;-74
2022/11/21 00:44:44;;;;;;;4.07;3.38;;;12.20;62.90;;;;;;5026827;28;20026;-73
2022/11/21 00:47:10;;;;;;;3.80;3.38;;;12.20;63.00;;;;;;5026822;28;20322;-74
2022/11/21 00:49:35;;;;;;;4.00;3.40;;;12.20;63.00;;;;;;5026694;28;20265;-72
2022/11/21 00:52:01;;;;;;;4.57;3.58;;;12.20;63.00;;;;;;5026769;28;20229;-73
2022/11/21 00:54:27;;;;;;;5.35;3.67;;;12.20;63.00;;;;;;5026677;28;20305;-73
2022/11/21 00:56:53;;;;;;;5.20;3.55;;;12.20;63.10;;;;;;5026751;28;20026;-73
2022/11/21 00:59:18;;;;;;;4.10;3.20;;;12.10;63.10;;;;;;5026661;28;20029;-73
2022/11/21 01:01:44;;;;;;;4.30;3.90;;;12.10;63.20;;;;;;5026604;28;20022;-73
2022/11/21 01:04:10;;;;;;;5.63;4.13;;;12.10;63.20;;;;;;5026506;28;20336;-73
2022/11/21 01:06:39;;;;;;;4.22;3.30;;;12.10;63.20;;;;;;5026464;28;20026;-73
2022/11/21 01:09:05;;;;;;;;;;;12.10;63.10;;;;;;5026604;28;20018;-73
2022/11/21 01:11:31;;;;;;;4.78;3.58;;;12.10;63.20;;;;;;5026427;28;20093;-73
2022/11/21 01:13:57;;;;;;;5.10;3.72;;;12.20;63.00;;;;;;5026461;28;20042;-73
2022/11/21 01:16:25;;;;;;;5.90;4.13;;;12.20;63.00;;;;;;5026310;28;20088;-73
2022/11/21 01:18:51;;;;;;;5.03;4.18;;;12.20;63.00;;;;;;5026317;28;20056;-73
2022/11/21 01:21:20;;;;;;;5.18;3.92;;;12.20;62.90;;;;;;5026265;28;20045;-73
2022/11/21 01:23:46;;;;;;;3.78;3.05;;;12.20;63.00;;;;;;5026209;28;20033;-74
2022/11/21 01:26:15;;;;;;;6.20;4.20;;;12.20;63.00;;;;;;5026154;28;20206;-73
2022/11/21 01:28:41;;;;;;;3.55;3.15;;;12.20;63.00;;;;;;5026135;28;20049;-73
2022/11/21 01:31:13;;;;;;;4.80;3.67;;;12.20;63.00;;;;;;5025998;28;20049;-74
2022/11/21 01:33:40;;;;;;;4.45;3.38;;;12.10;63.00;;;;;;5026019;28;20013;-75
2022/11/21 01:36:18;;;;;;;4.75;3.58;;;12.10;63.00;;;;;;5025969;28;20022;-75
2022/11/21 01:38:48;;;;;;;3.93;3.40;;;12.10;63.00;;;;;;5025939;28;20030;-74
2022/11/21 01:41:21;;;;;;;4.50;3.28;;;12.10;63.00;;;;;;5025809;28;20041;-74
2022/11/21 01:43:47;;;;;;;5.13;3.35;;;12.10;63.10;;;;;;5025585;28;20042;-72
2022/11/21 01:46:15;;;;;;;4.38;3.22;;;12.10;63.20;;;;;;5025757;28;20022;-73
2022/11/21 01:49:03;;;;;;;5.10;3.75;;;12.00;63.20;;;;;;5025636;28;20041;-73
2022/11/21 01:51:41;;;;;;;4.70;3.53;;;12.10;63.20;;;;;;5025677;28;20187;-73
2022/11/21 01:54:34;;;;;;;5.07;3.50;;;12.10;63.10;;;;;;5025617;28;20022;-73
2022/11/21 01:57:02;;;;;;;5.35;3.58;;;12.20;62.90;;;;;;5025596;28;20091;-72
2022/11/21 01:59:38;;;;;;;4.63;3.90;;;12.20;62.90;;;;;;5025482;28;20025;-74
2022/11/21 02:02:07;;;;;;;3.97;3.50;;;12.20;62.80;;;;;;5025515;28;20025;-73
2022/11/21 02:04:35;;;;;;;3.53;3.03;;;12.20;62.80;;;;;;5025442;28;20021;-73
2022/11/21 02:07:03;;;;;;;4.63;3.28;;;12.20;62.90;;;;;;5025416;28;20042;-74
2022/11/21 02:09:32;;;;;;;4.07;3.37;;;12.20;62.90;;;;;;5025322;28;20085;-74
2022/11/21 02:12:04;;;;;;;4.68;3.60;;;12.10;62.90;;;;;;5025278;28;20018;-74
2022/11/21 02:14:31;;;;;;;4.35;3.35;;;12.10;63.00;;;;;;5025228;28;20017;-74
2022/11/21 02:17:02;;;;;;;3.97;3.10;;;12.10;63.00;;;;;;5025191;28;20060;-74
2022/11/21 02:20:03;;;;;;;5.65;3.83;;;12.10;63.00;;;;;;5025170;28;20024;-74
2022/11/21 02:22:38;;;;;;;4.78;3.85;;;12.10;63.10;;;;;;5024825;28;20014;-73
2022/11/21 02:25:08;;;;;;;5.88;4.15;;;12.10;63.20;;;;;;5025050;28;20051;-72
2022/11/21 02:27:35;;;;;;;4.55;3.72;;;12.00;63.20;;;;;;5024916;28;20084;-73
2022/11/21 02:30:02;;;;;;;4.32;3.38;;;12.10;63.20;;;;;;5024929;28;20077;-74
2022/11/21 02:32:35;;;;;;;6.50;3.85;;;12.10;63.20;;;;;;5024872;28;20190;-75
2022/11/21 02:35:01;;;;;;;4.38;3.35;;;12.10;63.00;;;;;;5024938;28;20036;-74
2022/11/21 02:37:28;;;;;;;5.68;3.90;;;12.10;63.00;;;;;;5024749;28;20253;-74
2022/11/21 02:39:56;;;;;;;4.65;3.20;;;12.20;62.90;;;;;;5024998;28;20064;-74
2022/11/21 02:42:33;;;;;;;4.28;3.60;;;12.20;62.80;;;;;;5024608;28;20080;-74
2022/11/21 02:45:13;;;;;;;4.22;3.38;;;12.20;62.80;;;;;;5024680;28;20021;-74
2022/11/21 02:47:41;;;;;;;5.60;3.83;;;12.20;62.80;;;;;;5024297;28;20018;-73
2022/11/21 02:50:18;;;;;;;4.15;3.38;;;12.10;62.80;;;;;;5024572;28;20017;-73
2022/11/21 02:52:45;;;;;;;4.47;3.45;;;12.10;63.00;;;;;;5024599;28;20022;-73
2022/11/21 02:55:12;;;;;;;4.47;3.20;;;12.10;63.10;;;;;;5039807;28;20018;-73
2022/11/21 02:57:38;;;;;;;5.07;3.80;;;12.10;63.10;;;;;;5024459;28;20179;-73
2022/11/21 03:00:05;;;;;;;5.15;3.58;;;12.10;63.10;;;;;;5024425;28;20037;-74
2022/11/21 03:02:31;;;;;;;4.85;3.88;;;12.00;63.10;;;;;;5024345;28;20262;-73
2022/11/21 03:04:57;;;;;;;5.43;3.95;;;12.00;63.10;;;;;;5024291;28;20018;-73
2022/11/21 03:07:23;;;;;;;4.35;3.40;;;12.00;63.20;;;;;;5024265;28;20032;-73
2022/11/21 03:09:49;;;;;;;4.68;3.50;;;12.00;63.20;;;;;;5024153;28;20358;-73
2022/11/21 03:12:15;;;;;;;3.85;3.22;;;12.10;63.10;;;;;;5024234;28;20021;-73
2022/11/21 03:14:41;;;;;;;5.13;3.97;;;12.10;63.00;;;;;;5024173;28;20018;-73
2022/11/21 03:17:06;;;;;;;4.15;3.30;;;12.10;62.80;;;;;;5024177;28;20022;-73
2022/11/21 03:19:32;;;;;;;5.03;3.90;;;12.10;62.80;;;;;;5024245;28;20044;-74
2022/11/21 03:21:58;;;;;;;4.13;3.42;;;12.10;62.80;;;;;;5024283;28;20025;-74
2022/11/21 03:24:24;;;;;;;5.63;3.92;;;12.10;62.80;;;;;;5024037;28;20025;-74
2022/11/21 03:26:50;;;;;;;4.78;3.55;;;12.10;62.90;;;;;;5023992;28;20033;-74
2022/11/21 03:29:15;;;;;;;5.03;3.38;;;12.10;62.80;;;;;;5023964;28;20317;-74
2022/11/21 03:31:41;;;;;;;4.82;3.58;;;12.10;63.00;;;;;;5023692;28;20026;-72
2022/11/21 03:34:07;;;;;;;5.05;3.60;;;12.10;62.90;;;;;;5023299;28;20056;-73
2022/11/21 03:36:33;;;;;;;4.38;3.50;;;12.00;62.90;;;;;;5023914;28;20018;-73
2022/11/21 03:38:59;;;;;;;5.15;4.10;;;12.10;63.00;;;;;;5023857;28;20029;-73
2022/11/21 03:41:28;;;;;;;5.82;4.13;;;12.00;63.60;;;;;;5023789;28;20021;-73
2022/11/21 03:44:04;;;;;;;;;;;12.00;63.10;;;;;;5024134;28;20044;-73
2022/11/21 03:46:33;;;;;;;4.10;3.30;;;12.00;63.10;;;;;;5023859;28;19923;-73
2022/11/21 03:48:59;;;;;;;5.75;3.60;;;12.00;63.20;;;;;;5023672;28;20310;-73
2022/11/21 03:51:25;;;;;;;4.70;3.65;;;12.00;63.00;;;;;;5023675;28;20089;-73
2022/11/21 03:53:51;;;;;;;4.25;3.35;;;12.10;63.00;;;;;;5023686;28;20314;-73
2022/11/21 03:56:17;;;;;;;5.00;3.58;;;12.10;62.70;;;;;;5023688;28;20084;-73
2022/11/21 03:58:42;;;;;;;4.03;3.58;;;12.10;62.80;;;;;;5023615;28;20029;-72
2022/11/21 04:01:09;;;;;;;4.47;3.47;;;12.10;62.80;;;;;;5023582;28;20341;-73
2022/11/21 04:03:35;;;;;;;5.03;3.88;;;12.10;63.30;;;;;;5023647;28;20033;-72
2022/11/21 04:06:01;;;;;;;4.95;3.60;;;12.10;62.70;;;;;;5023598;28;20022;-73
2022/11/21 04:08:27;;;;;;;4.25;3.20;;;12.10;62.90;;;;;;5023525;28;20025;-73
2022/11/21 04:10:53;;;;;;;5.25;3.38;;;12.10;62.90;;;;;;5023542;28;20022;-74
2022/11/21 04:13:20;;;;;;;5.60;4.25;;;12.00;63.00;;;;;;5023561;28;20018;-73
2022/11/21 04:15:46;;;;;;;4.70;3.90;;;12.00;63.10;;;;;;5023574;28;20068;-74
2022/11/21 04:18:12;;;;;;;4.10;3.38;;;12.00;63.10;;;;;;5023491;28;20096;-75
2022/11/21 04:20:39;;;;;;;4.72;3.90;;;12.00;63.10;;;;;;5023585;28;20220;-74
2022/11/21 04:23:05;;;;;;;4.57;3.80;;;12.00;63.10;;;;;;5023579;28;20022;-74
2022/11/21 04:25:32;;;;;;;4.57;3.67;;;12.00;63.00;;;;;;5023446;28;20022;-74
2022/11/21 04:27:59;;;;;;;5.80;4.07;;;12.00;63.00;;;;;;5038613;28;20022;-73
2022/11/21 04:30:25;;;;;;;5.55;3.92;;;12.00;63.00;;;;;;5023328;28;20347;-74
2022/11/21 04:32:53;;;;;;;5.50;3.70;;;12.10;62.70;;;;;;5023351;28;20014;-73
2022/11/21 04:35:18;;;;;;;3.85;3.28;;;12.10;62.60;;;;;;5022152;28;20025;-74
2022/11/21 04:37:45;;;;;;;5.32;3.90;;;12.20;62.60;;;;;;5023383;28;20018;-74
2022/11/21 04:40:11;;;;;;;4.45;3.75;;;12.10;62.60;;;;;;5023349;28;20029;-73
2022/11/21 04:42:39;;;;;;;4.53;3.47;;;12.10;62.80;;;;;;5023138;28;20080;-73
2022/11/21 04:45:06;;;;;;;4.35;3.17;;;12.10;62.80;;;;;;5025907;28;20018;-74
2022/11/21 04:47:36;;;;;;;4.70;3.42;;;12.00;62.80;;;;;;5026903;28;20022;-74
2022/11/21 04:50:01;;;;;;;5.70;4.05;;;12.00;62.90;;;;;;5026756;28;20322;-72
2022/11/21 04:52:27;;;;;;;4.82;4.00;;;12.00;62.90;;;;;;5026797;28;20018;-73
2022/11/21 04:54:53;;;;;;;4.53;3.63;;;12.00;63.00;;;;;;5026725;28;20029;-73
2022/11/21 04:57:19;;;;;;;4.72;3.80;;;12.00;63.10;;;;;;5025533;28;20017;-73
2022/11/21 04:59:45;;;;;;;5.70;4.15;;;12.00;63.10;;;;;;5026664;28;20032;-72
2022/11/21 05:02:10;;;;;;;5.38;4.22;;;12.00;63.10;;;;;;5026576;28;20125;-73
2022/11/21 05:04:36;;;;;;;5.30;3.80;;;12.00;63.10;;;;;;5026532;28;20025;-73
2022/11/21 05:07:02;;;;;;;5.05;3.72;;;12.00;63.00;;;;;;5026524;28;20032;-73
2022/11/21 05:09:28;;;;;;;4.47;3.72;;;12.00;62.70;;;;;;5026460;28;20033;-73
2022/11/21 05:14:38;;;;;;;5.15;3.72;;;12.10;62.60;;;;;;5026428;28;20017;-73
2022/11/21 05:17:03;;;;;;;5.68;4.25;;;12.10;62.60;;;;;;5026318;28;20021;-75
2022/11/21 05:19:29;;;;;;;5.07;3.67;;;12.10;62.70;;;;;;5026322;28;20041;-73
2022/11/21 05:21:55;;;;;;;3.78;3.25;;;12.10;62.80;;;;;;5026241;28;20077;-73
2022/11/21 05:24:21;;;;;;;5.05;4.00;;;12.10;62.80;;;;;;5026187;28;20021;-73
2022/11/21 05:26:47;;;;;;;4.50;3.60;;;12.10;62.80;;;;;;5026182;28;20213;-73
2022/11/21 05:29:12;;;;;;;4.88;4.07;;;12.00;62.80;;;;;;5025995;28;20022;-73
2022/11/21 05:31:38;;;;;;;5.45;3.80;;;12.00;62.80;;;;;;5026082;28;20253;-73
2022/11/21 05:34:04;;;;;;;4.88;3.50;;;12.00;62.90;;;;;;5025967;28;20348;-74
2022/11/21 05:36:30;;;;;;;4.70;3.92;;;12.00;63.00;;;;;;5025967;28;20383;-74
2022/11/21 05:38:56;;;;;;;5.93;4.05;;;12.00;63.00;;;;;;5025850;28;20089;-73
2022/11/21 05:41:22;;;;;;;4.85;3.67;;;12.00;63.00;;;;;;5025842;28;20029;-74
2022/11/21 05:43:48;;;;;;;6.22;4.38;;;12.00;62.90;;;;;;5025637;28;20046;-74
2022/11/21 05:46:20;;;;;;;4.85;3.60;;;12.10;62.80;;;;;;5024632;28;20022;-73
2022/11/21 05:48:47;;;;;;;4.53;2.85;;;12.10;62.70;;;;;;5025682;28;20076;-73
2022/11/21 05:51:14;;;;;;;4.53;3.58;;;12.10;62.80;;;;;;5024551;28;20021;-73
2022/11/21 05:53:40;;;;;;;4.68;3.60;;;12.10;62.70;;;;;;5025582;28;20022;-73
2022/11/21 05:56:08;;;;;;;4.45;3.42;;;12.10;62.70;;;;;;5024621;28;20091;-73
2022/11/21 05:58:35;;;;;;;4.13;3.05;;;12.00;62.90;;;;;;5025547;28;20262;-74
2022/11/21 06:01:01;;;;;;;4.93;3.70;;;12.00;62.80;;;;;;5040874;28;20217;-74
2022/11/21 06:03:30;;;;;;;4.43;3.67;;;12.00;62.80;;;;;;5025464;28;20313;-73
2022/11/21 06:05:59;;;;;;;;;;;12.10;62.90;;;;;;5024659;28;20261;-73
2022/11/21 06:08:26;;;;;;;4.07;3.67;;;12.00;62.80;;;;;;5025295;28;20117;-72
2022/11/21 06:10:53;;;;;;;4.97;3.83;;;12.00;63.00;;;;;;5025330;28;20014;-73
2022/11/21 06:13:22;;;;;;;4.65;3.72;;;12.00;62.90;;;;;;5024136;28;20022;-73
2022/11/21 06:15:48;;;;;;;;;;;12.00;63.00;;;;;;5025727;28;20018;-73
2022/11/21 06:18:15;;;;;;;4.93;3.58;;;12.00;63.00;;;;;;5040436;28;20186;-73
2022/11/21 06:20:41;;;;;;;5.25;3.55;;;12.00;62.90;;;;;;5025166;28;20064;-73
2022/11/21 06:23:07;;;;;;;4.18;3.58;;;12.10;62.80;;;;;;5025096;28;20065;-73
2022/11/21 06:25:33;;;;;;;4.20;3.55;;;12.10;62.70;;;;;;5025055;28;20478;-73
2022/11/21 06:27:59;;;;;;;4.82;3.75;;;12.10;62.70;;;;;;5040322;28;20026;-72
2022/11/21 06:30:25;;;;;;;5.43;3.60;;;12.10;62.80;;;;;;5024966;28;20018;-72
2022/11/21 06:32:51;;;;;;;4.20;3.38;;;12.10;62.70;;;;;;5024926;28;20454;-73
2022/11/21 06:35:17;;;;;;;4.85;3.53;;;12.00;62.70;;;;;;5024850;28;20018;-73
2022/11/21 06:37:42;;;;;;;4.32;3.50;;;12.00;62.80;;;;;;5023635;28;20022;-73
2022/11/21 06:40:09;;;;;;;4.70;3.75;;;12.00;62.80;;;;;;5023600;28;20014;-73
2022/11/21 06:42:35;;;;;;;5.03;4.00;;;12.00;63.00;;;;;;5024618;28;20060;-73
2022/11/21 06:45:01;;;;;;;5.22;3.72;;;11.90;63.00;;;;;;5024713;28;20333;-73
2022/11/21 06:47:26;;;;;;;4.43;3.50;;;12.00;63.00;;;;;;5024628;28;20073;-73
2022/11/21 06:49:52;;;;;;;4.40;3.38;;;11.90;63.00;;;;;;5024507;28;20037;-73
2022/11/21 06:52:18;;;;;;;4.53;3.85;;;11.90;63.60;;;;;;5024606;28;20077;-73
2022/11/21 06:54:44;;;;;;;4.22;3.65;;;12.00;63.00;;;;;;5024561;28;20018;-74
2022/11/21 06:57:10;;;;;;;4.68;3.15;;;12.00;63.10;;;;;;5024497;28;20077;-73
2022/11/21 06:59:35;;;;;;;3.85;3.22;;;12.00;62.80;;;;;;5024487;28;20029;-73
2022/11/21 07:02:01;;;;;;;4.18;3.35;;;12.10;62.60;;;;;;5024499;28;20214;-73
2022/11/21 07:04:27;;;;;;;4.28;3.30;;;12.10;62.60;;;;;;5024380;28;20018;-73
2022/11/21 07:06:52;;;;;;;5.22;3.63;;;12.10;62.70;;;;;;5024113;28;20107;-73
2022/11/21 07:09:18;;;;;;;3.45;2.92;;;12.00;62.70;;;;;;5024219;28;20026;-73
2022/11/21 07:11:44;;;;;;;3.83;2.92;;;12.00;62.60;;;;;;5024217;28;20352;-74
2022/11/21 07:14:10;;;;;;;4.28;3.45;;;12.00;62.70;;;;;;5024192;28;20206;-73
2022/11/21 07:16:36;;;;;;;4.25;3.20;;;12.00;62.70;;;;;;5024145;28;20265;-72
2022/11/21 07:19:02;;;;;;;4.68;3.63;;;12.00;62.80;;;;;;5039491;28;20186;-73
2022/11/21 07:21:28;;;;;;;3.97;3.40;;;12.00;62.90;;;;;;5022925;28;20028;-73
2022/11/21 07:23:54;;;;;;;4.30;3.38;;;12.00;62.80;;;;;;5024022;28;20028;-74
2022/11/21 07:26:19;;;;;;;3.60;2.97;;;12.00;62.70;;;;;;5024044;28;20025;-74
2022/11/21 07:28:45;;;;;;;4.85;3.85;;;12.00;62.80;;;;;;5023937;28;20022;-73
2022/11/21 07:31:11;;;;;;;4.00;3.03;;;12.00;62.80;;;;;;5023984;28;20021;-72
2022/11/21 07:33:37;;;;;;;4.15;3.63;;;12.00;62.80;;;;;;5023916;28;20073;-72
2022/11/21 07:36:03;;;;;;;4.65;3.85;;;12.00;62.70;;;;;;5022701;28;20018;-72
2022/11/21 07:38:29;;;;;;;3.72;3.20;;;12.10;62.50;;;;;;5023835;28;20024;-72
2022/11/21 07:40:57;;;;;;;3.67;3.08;;;12.10;62.50;;;;;;5023899;28;20041;-73
2022/11/21 07:43:23;;;;;;;4.53;3.55;;;12.10;62.40;;;;;;5023672;28;20101;-72
2022/11/21 07:45:49;;;;;;;3.47;3.08;;;12.10;62.30;;;;;;5022632;28;20151;-72
2022/11/21 07:48:15;;;;;;;4.50;3.40;;;12.10;62.40;;;;;;5023754;28;20032;-73
2022/11/21 07:50:40;;;;;;;3.03;2.70;;;12.10;62.40;;;;;;5023770;28;20029;-72
2022/11/21 07:53:08;;;;;;;3.38;2.75;;;12.10;62.40;;;;;;5023757;28;20014;-72
2022/11/21 07:55:34;;;;;;;4.33;3.40;;;12.10;62.50;;;;;;5023776;28;20022;-73
2022/11/21 07:58:05;;;;;;;4.70;3.53;;;12.10;62.50;;;;;;5038957;28;20275;-73
2022/11/21 08:00:33;;;;;;;4.53;3.40;;;12.00;62.50;;;;;;5023713;28;20080;-72
2022/11/21 08:02:59;;;;;;;3.50;3.00;;;12.00;62.80;;;;;;5023714;28;20018;-72
2022/11/21 08:05:25;;;;;;;3.67;3.25;;;12.00;62.60;;;;;;5023626;28;20021;-72
2022/11/21 08:07:51;;;;;;;3.53;3.13;;;12.00;62.60;;;;;;5023499;28;20041;-72
2022/11/21 08:10:17;;;;;;;4.75;3.35;;;12.00;62.60;;;;;;5023550;28;20061;-72
2022/11/21 08:12:44;;;;;;;3.70;3.13;;;12.00;62.60;;;;;;5023535;28;20071;-73
2022/11/21 08:15:11;;;;;;;3.85;2.97;;;12.10;62.50;;;;;;5023593;28;20273;-73
2022/11/21 08:17:37;;;;;;;4.38;3.97;;;12.10;62.40;;;;;;5023517;28;20028;-72
2022/11/21 08:20:07;;;;;;;3.70;3.00;;;12.20;62.40;;;;;;5026235;28;20017;-72
2022/11/21 08:22:38;;;;;;;4.43;3.45;;;12.20;62.50;;;;;;5027375;28;20335;-72
2022/11/21 08:25:04;;;;;;;4.25;3.50;;;12.20;62.40;;;;;;5042744;28;20050;-72
2022/11/21 08:27:30;;;;;;;4.70;3.38;;;12.10;62.50;;;;;;5027291;28;20022;-72
2022/11/21 08:29:56;;;;;;;3.95;3.40;;;12.10;62.60;;;;;;5027191;28;20056;-73
2022/11/21 08:32:22;;;;;;;4.32;3.33;;;12.10;62.60;;;;;;5027243;28;20037;-73
2022/11/21 08:34:48;;;;;;;4.30;3.35;;;12.10;62.50;;;;;;5027173;28;20018;-73
2022/11/21 08:37:13;;;;;;;3.33;2.80;;;12.10;62.70;;;;;;5027107;28;20048;-74
2022/11/21 08:39:39;;;;;;;4.75;3.15;;;12.10;62.70;;;;;;5025919;28;20026;-73
2022/11/21 08:42:05;;;;;;;4.05;3.35;;;12.00;62.70;;;;;;5026894;28;20128;-73
2022/11/21 08:44:32;;;;;;;3.50;2.97;;;12.00;62.80;;;;;;5027072;28;20066;-72
2022/11/21 08:46:59;;;;;;;3.40;2.83;;;12.00;63.00;;;;;;5025752;28;20018;-73
2022/11/21 08:49:25;;;;;;;3.88;3.47;;;12.00;62.80;;;;;;5026795;28;20084;-72
2022/11/21 08:51:52;;;;;;;3.92;3.45;;;12.00;62.70;;;;;;5026876;28;20018;-72
2022/11/21 08:54:19;;;;;;;3.75;2.90;;;12.10;62.60;;;;;;5026759;28;20248;-74
2022/11/21 08:56:45;;;;;;;4.10;3.20;;;12.10;62.60;;;;;;5026776;28;20328;-74
2022/11/21 08:59:11;;;;;;;5.53;4.03;;;12.10;62.40;;;;;;5042027;28;20120;-73
2022/11/21 09:01:37;;;;;;;3.80;3.22;;;12.10;62.40;;;;;;5041998;28;20049;-73
2022/11/21 09:04:04;;;;;;;3.70;3.25;;;12.10;62.40;;;;;;5026600;28;20022;-73
2022/11/21 09:06:30;;;;;;;4.10;3.35;;;12.10;62.40;;;;;;5026571;28;20018;-73
2022/11/21 09:08:56;;;;;;;3.83;3.13;;;12.20;62.40;;;;;;5026404;28;20026;-73
2022/11/21 09:11:23;;;;;;;4.38;3.58;;;12.10;62.30;;;;;;5026519;28;20145;-72
2022/11/21 09:19:20;;;;;;;3.83;3.30;;;12.00;62.60;;;;;;5026380;28;20363;-73
2022/11/21 09:21:50;;;;;;;4.05;3.20;;;12.00;62.70;;;;;;5025145;28;20036;-72
2022/11/21 09:24:17;;;;;;;3.42;3.10;;;12.00;62.80;;;;;;5026282;28;20041;-73
2022/11/21 09:26:43;;;;;;;3.38;3.08;;;12.00;62.80;;;;;;5026190;28;20021;-73
2022/11/21 09:29:10;;;;;;;4.63;3.55;;;12.00;62.90;;;;;;5024929;28;20053;-73
2022/11/21 09:31:38;;;;;;;3.83;3.05;;;12.00;62.80;;;;;;5041395;28;20205;-74
2022/11/21 09:34:04;;;;;;;;;;;12.00;62.60;;;;;;5026548;28;20021;-73
2022/11/21 09:36:30;;;;;;;5.07;3.90;;;12.10;62.60;;;;;;5025960;28;19924;-73
2022/11/21 09:38:56;;;;;;;4.65;3.63;;;12.10;62.30;;;;;;5025972;28;20034;-72
2022/11/21 09:41:53;;;;;;;3.72;3.20;;;12.20;62.20;;;;;;5025908;28;20345;-73
2022/11/21 09:44:30;;;;;;;3.97;3.40;;;12.20;62.20;;;;;;5025888;28;20045;-73
2022/11/21 09:47:14;;;;;;;4.35;3.15;;;12.20;62.10;;;;;;5025844;28;20302;-72
2022/11/21 09:49:44;;;;;;;3.60;2.72;;;12.20;62.30;;;;;;5025664;28;20132;-72
2022/11/21 09:52:12;;;;;;;5.18;3.50;;;12.20;62.20;;;;;;5025721;28;20205;-72
2022/11/21 09:54:53;;;;;;;3.58;3.00;;;12.20;62.10;;;;;;5024517;28;20017;-72
2022/11/21 09:57:23;;;;;;;3.47;2.78;;;12.30;62.10;;;;;;5025661;28;20021;-72
2022/11/21 09:59:50;;;;;;;4.18;3.00;;;12.20;61.90;;;;;;5024384;28;20093;-72
2022/11/21 10:02:19;;;;;;;3.47;2.88;;;12.30;62.00;;;;;;5024453;28;20381;-71
2022/11/21 10:04:46;;;;;;;3.13;2.70;;;12.20;62.10;;;;;;5025413;28;20076;-72
2022/11/21 10:07:28;;;;;;;3.55;2.95;;;12.30;62.00;;;;;;5025427;28;20093;-74
2022/11/21 10:10:37;;;;;;;3.78;3.20;;;12.30;62.00;;;;;;5025282;28;20041;-73
2022/11/21 10:13:09;;;;;;;3.97;3.22;;;12.20;62.10;;;;;;5020554;28;20470;-73
2022/11/21 10:15:49;;;;;;;3.38;3.08;;;12.20;62.30;;;;;;5025304;28;20089;-73
2022/11/21 10:18:35;;;;;;;3.42;2.97;;;12.20;62.10;;;;;;5040642;28;20018;-72
2022/11/21 10:21:25;;;;;;;4.15;3.15;;;12.20;62.10;;;;;;5025257;28;20017;-73
2022/11/21 10:24:07;;;;;;;3.95;3.40;;;12.20;62.20;;;;;;5025164;28;20021;-71
2022/11/21 10:26:44;;;;;;;3.63;3.15;;;12.20;62.10;;;;;;5025055;28;20256;-73
2022/11/21 10:29:40;;;;;;;3.90;3.20;;;12.20;62.00;;;;;;5023797;28;20276;-73
2022/11/21 10:32:23;;;;;;;3.88;3.13;;;12.30;62.00;;;;;;5024992;28;20024;-73
2022/11/21 10:34:54;;;;;;;3.53;2.78;;;12.30;61.80;;;;;;5024928;28;20010;-73
2022/11/21 10:37:31;;;;;;;4.10;3.35;;;12.30;61.90;;;;;;5024951;28;20381;-72
2022/11/21 10:40:12;;;;;;;3.97;3.28;;;12.30;62.00;;;;;;5024821;28;20025;-72
2022/11/21 10:42:47;;;;;;;3.95;3.00;;;12.30;61.90;;;;;;5024103;28;20334;-74
2022/11/21 10:45:17;;;;;;;4.07;3.20;;;12.30;61.80;;;;;;5024818;28;20026;-72
2022/11/21 10:47:46;;;;;;;3.83;3.30;;;12.40;61.70;;;;;;5024757;28;20390;-72
2022/11/21 10:50:31;;;;;;;4.05;3.35;;;12.40;61.70;;;;;;5024598;28;20030;-73
2022/11/21 10:56:18;;;;;;;3.80;3.10;;;12.50;61.70;;;;;;5024625;28;20021;-73
2022/11/21 10:58:46;;;;;;;3.15;2.85;;;12.40;61.50;;;;;;5024554;28;20056;-74
2022/11/21 11:01:32;;;;;;;3.33;2.65;;;12.60;61.30;;;;;;5024529;28;20029;-72
2022/11/21 11:04:11;;;;;;;4.38;3.30;;;12.60;61.20;;;;;;5024429;28;20024;-73
2022/11/21 11:06:38;;;;;;;3.28;2.97;;;12.50;61.20;;;;;;5024401;28;20049;-73
2022/11/21 11:09:06;;;;;;;3.88;3.00;;;12.50;61.40;;;;;;5023152;28;20105;-72
2022/11/21 11:11:32;;;;;;;3.75;3.35;;;12.50;61.40;;;;;;5024250;28;20055;-73
2022/11/21 11:14:04;;;;;;;4.13;3.63;;;12.50;61.40;;;;;;5024228;28;20324;-72
2022/11/21 11:16:34;;;;;;;3.90;3.08;;;12.50;62.00;;;;;;5024196;28;20022;-73
2022/11/21 11:19:07;;;;;;;4.10;3.15;;;12.50;61.50;;;;;;5039527;28;20214;-73
2022/11/21 11:21:43;;;;;;;4.15;2.83;;;12.40;61.60;;;;;;5023030;28;20075;-73
2022/11/21 11:24:08;;;;;;;3.97;3.42;;;12.50;61.70;;;;;;5024106;28;20021;-73
2022/11/21 11:26:50;;;;;;;3.72;3.08;;;12.40;61.80;;;;;;5024048;28;20060;-73
2022/11/21 11:29:24;;;;;;;4.32;3.70;;;12.40;61.80;;;;;;5023968;28;20022;-73
2022/11/21 11:31:56;;;;;;;4.30;3.25;;;12.40;61.80;;;;;;5023991;28;20037;-73
2022/11/21 11:34:26;;;;;;;3.97;3.00;;;12.40;61.80;;;;;;5023999;28;20022;-72
2022/11/21 11:37:05;;;;;;;4.03;3.30;;;12.40;61.90;;;;;;5023968;28;20037;-73
2022/11/21 11:39:36;;;;;;;3.28;2.97;;;12.40;61.90;;;;;;5022788;28;20025;-72
2022/11/21 11:48:18;;;;;;;4.07;3.10;;;12.40;62.00;;;;;;5023742;28;20059;-73
2022/11/21 11:50:54;;;;;;;3.10;2.80;;;12.40;62.00;;;;;;5023740;28;20314;-73
2022/11/21 11:53:25;;;;;;;4.35;3.60;;;12.40;62.00;;;;;;5022961;28;20017;-73
2022/11/21 11:55:56;;;;;;;3.70;3.00;;;12.40;62.00;;;;;;5023772;28;20310;-73
2022/11/21 11:58:50;;;;;;;3.58;3.00;;;12.40;62.00;;;;;;5023776;28;20026;-73
2022/11/21 12:01:20;;;;;;;3.40;3.10;;;12.40;61.90;;;;;;5023709;28;20305;-73
2022/11/21 12:04:17;;;;;;;6.13;3.58;;;12.40;61.90;;;;;;5023624;28;20018;-72
2022/11/21 12:06:52;;;;;;;3.83;3.13;;;12.40;61.80;;;;;;5023739;28;20025;-73
2022/11/21 12:09:34;;;;;;;3.97;3.20;;;12.40;61.70;;;;;;5023579;28;20314;-74
2022/11/21 12:12:29;;;;;;;3.30;2.60;;;12.50;61.70;;;;;;5023629;28;20332;-74
2022/11/21 12:18:19;;;;;;;3.75;3.20;;;12.40;61.80;;;;;;5023588;28;20053;-73
2022/11/21 12:21:00;;;;;;;4.32;3.05;;;12.40;61.80;;;;;;5023544;28;20331;-73
2022/11/21 12:23:46;;;;;;;3.60;2.60;;;12.50;61.80;;;;;;5023446;28;20052;-73
2022/11/21 12:26:39;;;;;;;3.88;3.08;;;12.50;62.20;;;;;;5021972;28;20441;-73
2022/11/21 12:29:30;;;;;;;3.10;2.80;;;12.50;61.80;;;;;;5023429;28;20025;-73
2022/11/21 12:32:26;;;;;;;3.55;3.00;;;12.50;61.60;;;;;;5022253;28;20060;-73
2022/11/21 12:35:24;;;;;;;3.45;2.72;;;12.50;61.80;;;;;;5038756;28;20024;-73
2022/11/21 12:38:22;;;;;;;3.13;2.83;;;12.50;61.60;;;;;;5021294;28;20348;-74
2022/11/21 12:44:18;;;;;;;2.97;2.63;;;12.40;61.90;;;;;;5023219;28;20052;-73
2022/11/21 12:46:50;;;;;;;2.92;2.63;;;12.50;62.00;;;;;;5038539;28;20084;-74
2022/11/21 12:55:39;;;;;;;5.10;3.20;;;12.40;61.80;;;;;;5023221;28;20044;-73
2022/11/21 12:58:37;;;;;;;3.78;3.17;;;12.50;62.00;;;;;;5023174;28;20018;-73
2022/11/21 13:01:47;;;;;;;3.20;2.78;;;12.70;61.30;;;;;;5023206;28;20014;-74
2022/11/21 13:04:22;;;;;;;3.92;3.22;;;12.90;60.60;;;;;;5019048;28;20022;-73
2022/11/21 13:06:49;;;;;;;3.63;3.00;;;13.10;60.20;;;;;;5041943;28;20253;-73
2022/11/21 13:09:19;;;;;;;3.03;2.58;;;13.20;59.70;;;;;;5026496;28;20212;-72
2022/11/21 13:12:06;;;;;;;3.22;2.58;;;13.30;59.30;;;;;;5026471;28;20044;-73
2022/11/21 13:15:05;;;;;;;2.60;2.40;;;13.40;59.10;;;;;;5026476;28;20018;-73
2022/11/21 13:17:30;;;;;;;;;;;13.50;58.90;;;;;;5026892;28;20049;-73
2022/11/21 13:20:02;;;;;;;2.80;2.47;;;13.50;58.70;;;;;;5026377;28;19908;-74
2022/11/21 13:22:53;;;;;;;2.63;2.42;;;13.60;58.60;;;;;;5041660;28;20187;-73
2022/11/21 13:25:31;;;;;;;2.58;2.38;;;13.70;58.40;;;;;;5021301;28;20034;-72
2022/11/21 13:28:20;;;;;;;3.47;3.03;;;13.70;58.30;;;;;;5026169;28;20132;-73
2022/11/21 13:30:52;;;;;;;;;;;13.70;58.20;;;;;;5021100;28;20053;-74
2022/11/21 13:33:36;;;;;;;3.95;2.97;;;13.70;58.30;;;;;;5026160;28;19905;-73